Time;durP1;ratioP1;P1;durP2;ratioP2;P2;SDS_P1;SDS_P2;PMS_P1;PMS_P2;Temp;Humidity;BMP_temperature;BMP_pressure;BME280_temperature;BME280_humidity;BME280_pressure;Samples;Min_cycle;Max_cycle;Signal;HPM_P1;HPM_P2
2022/05/27 00:01:28;;;;;;;15.10;13.07;;;14.40;99.90;;;;;;5040969;28;20211;-61
2022/05/27 00:03:55;;;;;;;14.73;12.93;;;14.40;99.90;;;;;;5049285;28;20199;-77
2022/05/27 00:06:22;;;;;;;17.67;14.00;;;14.30;99.90;;;;;;5038206;28;20211;-77
2022/05/27 00:08:48;;;;;;;18.37;13.87;;;14.30;99.90;;;;;;5041317;28;20210;-79
2022/05/27 00:11:14;;;;;;;18.30;13.53;;;14.20;99.90;;;;;;5043323;28;20783;-61
2022/05/27 00:13:41;;;;;;;17.07;13.13;;;14.20;99.90;;;;;;5046569;28;20218;-60
2022/05/27 00:16:06;;;;;;;17.37;15.50;;;14.10;99.90;;;;;;5035022;28;20207;-60
2022/05/27 00:18:32;;;;;;;20.33;16.13;;;14.20;99.90;;;;;;5034060;28;20698;-75
2022/05/27 00:20:59;;;;;;;17.57;14.67;;;14.10;99.90;;;;;;5046347;28;20210;-63
2022/05/27 00:23:24;;;;;;;20.07;15.80;;;14.20;99.90;;;;;;5034618;28;20210;-63
2022/05/27 00:25:50;;;;;;;17.53;13.90;;;14.20;99.90;;;;;;5037163;28;20206;-62
2022/05/27 00:28:16;;;;;;;17.47;13.93;;;14.20;99.90;;;;;;5034549;28;20222;-62
2022/05/27 00:30:42;;;;;;;17.90;16.20;;;14.30;99.90;;;;;;5034271;28;20641;-62
2022/05/27 00:33:08;;;;;;;12.83;11.53;;;14.20;99.90;;;;;;5034393;28;20229;-62
2022/05/27 00:35:34;;;;;;;15.20;13.60;;;14.20;99.90;;;;;;5036031;28;20233;-62
2022/05/27 00:38:00;;;;;;;15.43;13.60;;;14.20;99.90;;;;;;5035860;28;20199;-63
2022/05/27 00:40:33;;;;;;;12.73;11.70;;;14.20;99.90;;;;;;5039198;28;20570;-63
2022/05/27 00:42:58;;;;;;;13.60;10.90;;;14.10;99.90;;;;;;5033574;28;20194;-63
2022/05/27 00:45:25;;;;;;;13.00;11.80;;;14.20;99.90;;;;;;5038004;28;20194;-62
2022/05/27 00:47:54;;;;;;;15.80;12.33;;;14.20;99.90;;;;;;5034322;28;20249;-62
2022/05/27 00:50:25;;;;;;;11.90;10.70;;;14.40;99.90;;;;;;5039231;28;20213;-63
2022/05/27 00:52:53;;;;;;;12.40;11.10;;;14.30;99.90;;;;;;5034922;28;20765;-62
2022/05/27 00:55:21;;;;;;;14.00;10.97;;;14.30;99.90;;;;;;5034143;28;20178;-62
2022/05/27 00:57:51;;;;;;;13.03;11.80;;;14.30;99.90;;;;;;5035301;28;20203;-62
2022/05/27 01:00:20;;;;;;;12.80;11.70;;;14.30;99.90;;;;;;5040630;28;20684;-62
2022/05/27 01:02:46;;;;;;;11.80;10.60;;;14.30;99.90;;;;;;5035583;28;20219;-61
2022/05/27 01:05:14;;;;;;;11.10;10.03;;;14.30;99.90;;;;;;5034814;28;20211;-63
2022/05/27 01:07:40;;;;;;;13.03;11.53;;;14.30;99.90;;;;;;5037269;28;20692;-64
2022/05/27 01:10:09;;;;;;;11.70;10.70;;;14.30;99.90;;;;;;5038321;28;20218;-64
2022/05/27 01:13:03;;;;;;;14.67;13.33;;;14.40;99.90;;;;;;5035072;28;20233;-64
2022/05/27 01:15:42;;;;;;;14.73;13.33;;;14.30;99.90;;;;;;5038008;28;20729;-64
2022/05/27 01:21:48;;;;;;;15.20;13.03;;;14.20;99.90;;;;;;5032572;28;20217;-65
2022/05/27 01:24:28;;;;;;;17.03;15.00;;;14.10;99.90;;;;;;5034160;28;20198;-65
2022/05/27 01:27:20;;;;;;;17.17;15.47;;;14.10;99.90;;;;;;5035227;28;20735;-64
2022/05/27 01:30:20;;;;;;;17.70;14.87;;;14.10;99.90;;;;;;5034018;28;20194;-64
2022/05/27 01:33:20;;;;;;;18.80;15.77;;;14.10;99.90;;;;;;5034538;28;20293;-64
2022/05/27 01:36:01;;;;;;;16.03;14.30;;;14.10;99.90;;;;;;5035724;28;20197;-65
2022/05/27 01:38:48;;;;;;;15.67;14.07;;;14.10;99.90;;;;;;5033472;28;20207;-64
2022/05/27 01:41:37;;;;;;;20.70;16.87;;;14.20;99.90;;;;;;5026890;28;20953;-63
2022/05/27 01:44:15;;;;;;;18.43;15.53;;;14.20;99.90;;;;;;5036609;28;20214;-63
2022/05/27 01:46:44;;;;;;;19.57;17.57;;;14.20;99.90;;;;;;5035520;28;20252;-62
2022/05/27 01:49:25;;;;;;;17.20;15.50;;;14.20;99.90;;;;;;5040177;28;20193;-63
2022/05/27 01:52:18;;;;;;;18.47;16.77;;;14.30;99.90;;;;;;5023405;28;20702;-63
2022/05/27 01:55:00;;;;;;;17.90;15.17;;;14.30;99.90;;;;;;5033203;28;20242;-64
2022/05/27 01:57:31;;;;;;;18.20;16.20;;;14.30;99.90;;;;;;5023711;28;20200;-64
2022/05/27 02:00:16;;;;;;;17.70;15.90;;;14.20;99.90;;;;;;5020322;28;20291;-73
2022/05/27 02:02:59;;;;;;;18.20;15.50;;;14.20;99.90;;;;;;5034010;28;20927;-65
2022/05/27 02:05:27;;;;;;;20.70;18.67;;;14.20;99.90;;;;;;5028130;28;20187;-66
2022/05/27 02:08:12;;;;;;;17.53;15.30;;;14.20;99.90;;;;;;5042370;28;20199;-65
2022/05/27 02:10:46;;;;;;;16.47;14.80;;;14.20;99.90;;;;;;5039423;28;20527;-66
2022/05/27 02:13:23;;;;;;;19.83;16.57;;;14.20;99.90;;;;;;5039528;28;20271;-66
2022/05/27 02:15:51;;;;;;;18.70;17.07;;;14.20;99.90;;;;;;5037446;28;20186;-66
2022/05/27 02:18:44;;;;;;;18.67;16.37;;;14.20;99.90;;;;;;5036302;28;20277;-66
2022/05/27 02:21:16;;;;;;;21.53;15.77;;;14.20;99.90;;;;;;5037521;28;20212;-65
2022/05/27 02:24:10;;;;;;;17.10;14.73;;;14.20;99.90;;;;;;5028683;28;20183;-65
2022/05/27 02:26:41;;;;;;;16.93;13.17;;;14.20;99.90;;;;;;5028598;28;20215;-65
2022/05/27 02:29:12;;;;;;;16.97;15.03;;;14.20;99.90;;;;;;5031114;28;20219;-65
2022/05/27 02:31:40;;;;;;;16.77;15.27;;;14.20;99.90;;;;;;5046624;28;20286;-66
2022/05/27 02:36:59;;;;;;;15.93;13.10;;;14.20;99.90;;;;;;5039422;28;20212;-65
2022/05/27 02:39:27;;;;;;;19.63;16.33;;;14.20;99.90;;;;;;5035684;28;20187;-65
2022/05/27 02:42:14;;;;;;;16.37;14.87;;;14.20;99.90;;;;;;5050040;28;20187;-65
2022/05/27 02:44:52;;;;;;;18.13;14.07;;;14.20;99.90;;;;;;5035603;28;20641;-65
2022/05/27 02:47:35;;;;;;;17.50;15.63;;;14.20;99.90;;;;;;5038906;28;20238;-65
2022/05/27 02:50:19;;;;;;;15.90;14.23;;;14.20;99.90;;;;;;5044455;28;20175;-65
2022/05/27 02:53:07;;;;;;;13.03;11.77;;;14.20;99.90;;;;;;5023391;28;20206;-64
2022/05/27 02:55:43;;;;;;;15.67;12.87;;;14.30;99.90;;;;;;5028851;28;20194;-65
2022/05/27 02:58:09;;;;;;;13.87;12.53;;;14.30;99.90;;;;;;5023520;28;20266;-65
2022/05/27 03:00:37;;;;;;;13.13;11.80;;;14.30;99.90;;;;;;5045823;28;20191;-65
2022/05/27 03:03:02;;;;;;;14.40;11.77;;;14.30;99.90;;;;;;5046062;28;20257;-65
2022/05/27 03:05:51;;;;;;;12.67;10.67;;;14.30;99.90;;;;;;5063258;28;20209;-65
2022/05/27 03:08:26;;;;;;;11.00;9.90;;;14.30;99.90;;;;;;5042944;28;20222;-66
2022/05/27 03:11:13;;;;;;;13.43;10.17;;;14.30;99.90;;;;;;5032066;28;20249;-65
2022/05/27 03:14:03;;;;;;;11.20;10.10;;;14.30;99.90;;;;;;5032175;28;20257;-65
2022/05/27 03:17:12;;;;;;;13.33;10.27;;;14.30;99.90;;;;;;5046024;28;20754;-65
2022/05/27 03:20:12;;;;;;;13.00;11.23;;;14.30;99.90;;;;;;5037003;28;20685;-65
2022/05/27 03:22:56;;;;;;;12.67;11.33;;;14.30;99.90;;;;;;5040040;28;20299;-65
2022/05/27 03:25:37;;;;;;;11.87;10.63;;;14.30;99.90;;;;;;5032240;28;20490;-66
2022/05/27 03:28:23;;;;;;;15.27;10.40;;;14.30;99.90;;;;;;5026811;28;20688;-66
2022/05/27 03:31:12;;;;;;;11.70;10.63;;;14.30;99.90;;;;;;5044777;28;20643;-65
2022/05/27 03:33:50;;;;;;;14.13;12.63;;;14.30;99.90;;;;;;5032438;28;20291;-65
2022/05/27 03:36:30;;;;;;;13.77;10.40;;;14.30;99.90;;;;;;5032649;28;20578;-66
2022/05/27 03:39:10;;;;;;;11.07;10.03;;;14.30;99.90;;;;;;5034824;28;20197;-67
2022/05/27 03:41:43;;;;;;;12.80;10.37;;;14.30;99.90;;;;;;5042807;28;20657;-66
2022/05/27 03:44:17;;;;;;;12.87;11.57;;;14.30;99.90;;;;;;5036511;28;20251;-66
2022/05/27 03:46:44;;;;;;;12.40;10.40;;;14.30;99.90;;;;;;5044693;28;20195;-66
2022/05/27 03:49:10;;;;;;;11.93;9.33;;;14.30;99.90;;;;;;5033992;28;20657;-70
2022/05/27 03:51:38;;;;;;;10.70;9.60;;;14.30;99.90;;;;;;5052396;28;20199;-65
2022/05/27 03:54:09;;;;;;;12.40;11.17;;;14.30;99.90;;;;;;5036868;28;20737;-65
2022/05/27 03:56:40;;;;;;;13.13;10.00;;;14.30;99.90;;;;;;5053700;28;20616;-65
2022/05/27 03:59:08;;;;;;;11.20;9.90;;;14.30;99.90;;;;;;5035592;28;20217;-66
2022/05/27 04:01:35;;;;;;;10.87;9.57;;;14.30;99.90;;;;;;5052107;28;20201;-65
2022/05/27 04:04:04;;;;;;;13.27;11.67;;;14.30;99.90;;;;;;5035029;28;20239;-66
2022/05/27 04:06:30;;;;;;;14.40;11.07;;;14.30;99.90;;;;;;5051275;28;20195;-66
2022/05/27 04:08:57;;;;;;;13.67;11.40;;;14.30;99.90;;;;;;5037712;28;20208;-66
2022/05/27 04:11:23;;;;;;;13.20;11.90;;;14.30;99.90;;;;;;5054676;28;20608;-65
2022/05/27 04:13:49;;;;;;;12.00;10.83;;;14.20;99.90;;;;;;5038561;28;20223;-65
2022/05/27 04:16:15;;;;;;;12.77;11.43;;;14.30;99.90;;;;;;5052040;28;21383;-66
2022/05/27 04:18:40;;;;;;;12.70;11.57;;;14.20;99.90;;;;;;5040051;28;20227;-65
2022/05/27 04:21:06;;;;;;;14.83;12.03;;;14.20;99.90;;;;;;5054244;28;20210;-65
2022/05/27 04:23:31;;;;;;;12.80;10.93;;;14.20;99.90;;;;;;5040587;28;20218;-65
2022/05/27 04:25:57;;;;;;;12.37;11.07;;;14.30;99.90;;;;;;5057840;28;20203;-65
2022/05/27 04:28:23;;;;;;;12.10;10.87;;;14.20;99.90;;;;;;5037368;28;21046;-65
2022/05/27 04:30:48;;;;;;;11.70;10.23;;;14.30;99.90;;;;;;5061931;28;20892;-65
2022/05/27 04:33:14;;;;;;;13.07;11.70;;;14.30;99.90;;;;;;5040228;28;20240;-66
2022/05/27 04:35:40;;;;;;;21.63;11.97;;;14.30;99.90;;;;;;5036503;28;20191;-65
2022/05/27 04:38:06;;;;;;;15.83;12.27;;;14.20;99.90;;;;;;5040261;28;20199;-65
2022/05/27 04:40:32;;;;;;;12.00;10.83;;;14.30;99.90;;;;;;5060869;28;20319;-65
2022/05/27 04:42:58;;;;;;;13.17;11.10;;;14.30;99.90;;;;;;5044198;28;20219;-65
2022/05/27 04:45:24;;;;;;;11.87;10.60;;;14.30;99.90;;;;;;5040099;28;20637;-65
2022/05/27 04:47:50;;;;;;;13.53;10.53;;;14.40;99.90;;;;;;5049733;28;20215;-66
2022/05/27 04:50:18;;;;;;;12.77;10.43;;;14.40;99.90;;;;;;5058318;28;20195;-65
2022/05/27 04:52:43;;;;;;;11.57;10.37;;;14.40;99.90;;;;;;5045389;28;20258;-66
2022/05/27 04:55:12;;;;;;;12.80;11.30;;;14.40;99.90;;;;;;5059478;28;20221;-66
2022/05/27 04:57:42;;;;;;;12.53;11.23;;;14.40;99.90;;;;;;5050150;28;20694;-67
2022/05/27 05:00:15;;;;;;;14.13;12.17;;;14.40;99.90;;;;;;5030107;28;20225;-67
2022/05/27 05:02:42;;;;;;;13.97;12.33;;;14.40;99.90;;;;;;5032228;28;20230;-66
2022/05/27 05:05:08;;;;;;;15.83;11.50;;;14.30;99.90;;;;;;5036935;28;20736;-66
2022/05/27 05:07:35;;;;;;;12.43;11.27;;;14.30;99.90;;;;;;5036345;28;20198;-66
2022/05/27 05:10:01;;;;;;;16.10;12.13;;;14.30;99.90;;;;;;5035104;28;20211;-66
2022/05/27 05:12:26;;;;;;;13.37;12.07;;;14.30;99.90;;;;;;5035381;28;20245;-65
2022/05/27 05:14:53;;;;;;;13.97;12.43;;;14.20;99.90;;;;;;5036800;28;20210;-65
2022/05/27 05:17:19;;;;;;;17.07;14.00;;;14.20;99.90;;;;;;5034478;28;20199;-64
2022/05/27 05:19:46;;;;;;;17.93;14.37;;;14.10;99.90;;;;;;5034137;28;20281;-66
2022/05/27 05:22:12;;;;;;;20.47;14.53;;;14.00;99.90;;;;;;5041958;28;20208;-63
2022/05/27 05:24:38;;;;;;;19.67;15.63;;;13.90;99.90;;;;;;5034967;28;20669;-63
2022/05/27 05:27:04;;;;;;;20.03;14.70;;;13.90;99.90;;;;;;5060661;28;20260;-66
2022/05/27 05:29:29;;;;;;;17.90;15.97;;;13.80;99.90;;;;;;5057047;28;20193;-65
2022/05/27 05:31:55;;;;;;;19.73;14.77;;;13.80;99.90;;;;;;5045947;28;20332;-65
2022/05/27 05:34:20;;;;;;;15.67;14.07;;;13.70;99.90;;;;;;5038218;28;20219;-65
2022/05/27 05:36:46;;;;;;;22.03;14.77;;;13.80;99.90;;;;;;5041268;28;20195;-64
2022/05/27 05:39:12;;;;;;;18.73;15.30;;;13.70;99.90;;;;;;5031914;28;20586;-65
2022/05/27 05:41:39;;;;;;;16.30;14.53;;;13.70;99.90;;;;;;5048800;28;20653;-65
2022/05/27 05:44:07;;;;;;;19.57;12.13;;;13.60;99.90;;;;;;5025054;28;20706;-65
2022/05/27 05:46:35;;;;;;;13.57;10.57;;;13.50;99.90;;;;;;5051235;28;20676;-65
2022/05/27 05:49:01;;;;;;;14.83;9.90;;;13.40;99.90;;;;;;5026254;28;20215;-64
2022/05/27 05:51:27;;;;;;;9.17;6.63;;;13.20;99.90;;;;;;5064181;28;20568;-64
2022/05/27 05:53:54;;;;;;;8.63;6.30;;;13.10;99.90;;;;;;5044452;28;20230;-64
2022/05/27 05:56:20;;;;;;;7.30;5.50;;;13.10;99.90;;;;;;5057467;28;20636;-65
2022/05/27 05:58:48;;;;;;;10.57;4.30;;;13.00;99.90;;;;;;5030633;28;20295;-65
2022/05/27 06:01:13;;;;;;;6.10;4.73;;;13.10;99.90;;;;;;5043228;28;20524;-65
2022/05/27 06:03:39;;;;;;;5.00;4.50;;;13.10;99.90;;;;;;5040826;28;20210;-65
2022/05/27 06:06:05;;;;;;;8.03;6.13;;;13.10;99.90;;;;;;5058545;28;20648;-65
2022/05/27 06:08:31;;;;;;;7.50;5.53;;;13.10;99.90;;;;;;5034387;28;20199;-65
2022/05/27 06:10:56;;;;;;;12.03;7.13;;;13.20;99.90;;;;;;5043207;28;20296;-65
2022/05/27 06:13:22;;;;;;;8.40;6.60;;;13.20;99.90;;;;;;5040554;28;20297;-65
2022/05/27 06:15:47;;;;;;;7.57;6.20;;;13.10;99.90;;;;;;5057165;28;20201;-65
2022/05/27 06:18:15;;;;;;;8.70;7.13;;;13.20;99.90;;;;;;5034689;28;20898;-65
2022/05/27 06:20:40;;;;;;;7.77;7.07;;;13.30;99.90;;;;;;5058621;28;20278;-65
2022/05/27 06:23:07;;;;;;;10.20;7.80;;;13.40;99.90;;;;;;5041043;28;20298;-65
2022/05/27 06:25:33;;;;;;;8.53;7.73;;;13.40;99.90;;;;;;5055486;28;20191;-65
2022/05/27 06:36:13;;;;;;;7.77;6.07;;;13.80;99.90;;;;;;5035431;28;20245;-65
2022/05/27 06:38:38;;;;;;;10.13;6.07;;;13.90;99.90;;;;;;5040957;28;20204;-65
2022/05/27 06:41:04;;;;;;;8.70;5.30;;;14.00;99.90;;;;;;5043697;28;20196;-66
2022/05/27 06:43:31;;;;;;;8.93;5.40;;;14.00;99.90;;;;;;5035087;28;20210;-65
2022/05/27 06:45:57;;;;;;;9.57;5.47;;;14.10;99.90;;;;;;5064037;28;20207;-66
2022/05/27 06:48:22;;;;;;;6.17;4.30;;;14.20;99.90;;;;;;5045362;28;20218;-65
2022/05/27 06:50:48;;;;;;;6.20;3.60;;;14.30;99.90;;;;;;5051796;28;20191;-64
2022/05/27 06:53:13;;;;;;;5.03;4.00;;;14.30;99.90;;;;;;5044269;28;20222;-65
2022/05/27 06:55:38;;;;;;;5.93;3.23;;;14.40;99.90;;;;;;5046290;28;20265;-66
2022/05/27 06:58:04;;;;;;;5.33;4.57;;;14.30;99.90;;;;;;5049521;28;20228;-64
2022/05/27 07:00:30;;;;;;;5.97;3.80;;;14.40;99.90;;;;;;5061742;28;20673;-65
2022/05/27 07:02:55;;;;;;;6.47;3.90;;;14.40;99.90;;;;;;5046788;28;20681;-65
2022/05/27 07:05:20;;;;;;;3.67;2.70;;;14.40;99.90;;;;;;5064283;28;20248;-65
2022/05/27 07:07:46;;;;;;;6.23;3.73;;;14.40;99.90;;;;;;5048789;28;20203;-66
2022/05/27 07:10:12;;;;;;;5.23;3.10;;;14.40;99.90;;;;;;5050008;28;20199;-65
2022/05/27 07:12:39;;;;;;;13.37;5.87;;;14.40;99.90;;;;;;5040645;28;20940;-66
2022/05/27 07:15:05;;;;;;;8.07;3.27;;;14.60;99.90;;;;;;5042453;28;20214;-66
2022/05/27 07:17:39;;;;;;;7.00;3.47;;;14.70;99.90;;;;;;5041833;28;20566;-65
2022/05/27 07:20:05;;;;;;;4.07;3.13;;;14.70;99.90;;;;;;5040997;28;20174;-65
2022/05/27 07:22:31;;;;;;;6.43;3.63;;;14.70;99.90;;;;;;5045103;28;20289;-64
2022/05/27 07:24:56;;;;;;;3.10;2.73;;;14.70;99.90;;;;;;5038779;28;20329;-64
2022/05/27 07:27:22;;;;;;;7.70;2.87;;;14.80;99.90;;;;;;5036463;28;20202;-62
2022/05/27 07:29:47;;;;;;;8.07;3.30;;;14.80;99.90;;;;;;5038417;28;20244;-61
2022/05/27 07:32:14;;;;;;;3.03;2.70;;;14.80;99.90;;;;;;5035730;28;20325;-63
2022/05/27 07:34:40;;;;;;;9.37;2.73;;;14.90;99.90;;;;;;5038822;28;20206;-64
2022/05/27 07:37:05;;;;;;;4.63;2.40;;;15.10;99.90;;;;;;5037126;28;20983;-63
2022/05/27 07:39:31;;;;;;;3.47;2.40;;;15.10;99.90;;;;;;5037361;28;20625;-64
2022/05/27 07:41:56;;;;;;;10.97;3.07;;;15.10;99.90;;;;;;5036811;28;20710;-63
2022/05/27 07:44:22;;;;;;;5.13;2.13;;;15.10;99.90;;;;;;5037101;28;20176;-63
2022/05/27 07:46:51;;;;;;;5.23;2.33;;;15.20;99.90;;;;;;5039097;28;20698;-62
2022/05/27 07:49:17;;;;;;;3.60;2.07;;;15.30;99.90;;;;;;5038550;28;20219;-63
2022/05/27 07:51:43;;;;;;;1.50;1.40;;;15.40;99.90;;;;;;5042434;28;20272;-63
2022/05/27 07:54:11;;;;;;;5.03;1.97;;;15.30;99.90;;;;;;5036512;28;20230;-64
2022/05/27 07:56:37;;;;;;;6.73;1.83;;;15.40;99.90;;;;;;5037339;28;20223;-63
2022/05/27 07:59:02;;;;;;;6.77;2.07;;;15.40;99.90;;;;;;5037033;28;20249;-64
2022/05/27 08:01:28;;;;;;;8.20;3.10;;;15.30;98.40;;;;;;5039224;28;20282;-65
2022/05/27 08:03:53;;;;;;;3.77;1.60;;;15.30;99.20;;;;;;5038937;28;20206;-62
2022/05/27 08:06:19;;;;;;;4.03;1.70;;;15.40;98.00;;;;;;5041911;28;20187;-64
2022/05/27 08:08:46;;;;;;;3.97;2.20;;;15.30;96.30;;;;;;5038267;28;20213;-62
2022/05/27 08:11:12;;;;;;;3.27;1.90;;;15.40;96.70;;;;;;5039148;28;20245;-62
2022/05/27 08:13:38;;;;;;;7.63;2.77;;;15.50;96.30;;;;;;5040338;28;20665;-64
2022/05/27 08:16:04;;;;;;;2.87;1.50;;;15.50;97.10;;;;;;5043155;28;20555;-61
2022/05/27 08:18:29;;;;;;;4.30;2.30;;;15.50;95.50;;;;;;5033801;28;20199;-64
2022/05/27 08:20:55;;;;;;;9.17;2.90;;;15.50;97.10;;;;;;5038563;28;20598;-64
2022/05/27 08:23:20;;;;;;;2.17;1.90;;;15.60;96.80;;;;;;5032131;28;20590;-66
2022/05/27 08:25:46;;;;;;;2.40;1.57;;;15.70;97.90;;;;;;5061872;28;20203;-66
2022/05/27 08:28:11;;;;;;;5.77;2.17;;;16.00;96.20;;;;;;5040470;28;20207;-66
2022/05/27 08:30:39;;;;;;;5.20;1.97;;;15.80;95.20;;;;;;5060505;28;20187;-70
2022/05/27 08:33:05;;;;;;;11.27;2.83;;;15.70;94.20;;;;;;5043708;28;20215;-62
2022/05/27 08:38:20;;;;;;;4.43;2.23;;;15.90;95.30;;;;;;5034215;28;20757;-66
2022/05/27 08:41:34;;;;;;;5.07;2.73;;;16.10;95.20;;;;;;5055265;28;20191;-62
2022/05/27 08:44:38;;;;;;;6.33;2.20;;;16.10;94.10;;;;;;5022351;28;20214;-63
2022/05/27 08:47:20;;;;;;;5.20;3.57;;;16.20;94.10;;;;;;5022412;28;20322;-62
2022/05/27 08:49:50;;;;;;;10.10;3.23;;;16.20;93.20;;;;;;5041253;28;20198;-61
2022/05/27 08:52:36;;;;;;;469.00;424.63;;;16.40;92.30;;;;;;5042268;28;20214;-62
2022/05/27 08:59:26;;;;;;;11.27;8.70;;;16.40;92.00;;;;;;5032340;28;20689;-62
2022/05/27 09:00:37;;;;;;;4.40;2.90;;;16.40;90.00;;;;;;5046887;28;20302;-68
2022/05/27 09:03:07;;;;;;;4.93;2.50;;;16.40;84.40;;;;;;5036500;28;20195;-67
2022/05/27 09:05:38;;;;;;;7.20;3.67;;;16.30;84.80;;;;;;5047680;28;20198;-68
2022/05/27 09:08:06;;;;;;;7.33;3.90;;;16.20;85.50;;;;;;5034708;28;20310;-68
2022/05/27 09:10:51;;;;;;;7.27;2.63;;;16.30;86.10;;;;;;5050005;28;20245;-68
2022/05/27 09:13:48;;;;;;;5.23;2.90;;;16.20;86.70;;;;;;5034846;28;20206;-68
2022/05/27 09:16:21;;;;;;;6.63;2.97;;;16.50;83.30;;;;;;5036848;28;20278;-68
2022/05/27 09:18:58;;;;;;;6.63;2.97;;;16.50;82.20;;;;;;5034734;28;20210;-68
2022/05/27 09:21:45;;;;;;;9.23;3.87;;;16.80;83.40;;;;;;5053783;28;20260;-69
2022/05/27 09:24:16;;;;;;;14.43;5.37;;;17.20;80.20;;;;;;5035901;28;20215;-67
2022/05/27 09:27:20;;;;;;;7.73;3.63;;;17.20;80.40;;;;;;5036011;28;20686;-69
2022/05/27 09:29:52;;;;;;;8.47;3.80;;;17.10;79.80;;;;;;5025748;28;20563;-67
2022/05/27 09:32:30;;;;;;;17.73;6.17;;;16.90;79.60;;;;;;5043722;28;20230;-71
2022/05/27 09:35:01;;;;;;;19.77;6.83;;;16.90;81.30;;;;;;5042529;28;20239;-67
2022/05/27 09:37:32;;;;;;;11.03;3.43;;;16.70;81.50;;;;;;5024533;28;20195;-68
2022/05/27 09:40:01;;;;;;;7.17;2.87;;;16.50;81.60;;;;;;5034641;28;20226;-70
2022/05/27 09:42:37;;;;;;;3.13;2.13;;;16.60;81.50;;;;;;5043150;28;20198;-69
2022/05/27 09:45:03;;;;;;;5.40;2.63;;;16.60;81.60;;;;;;5037087;28;20220;-70
2022/05/27 09:47:32;;;;;;;7.20;2.80;;;16.70;81.60;;;;;;5039975;28;20221;-67
2022/05/27 09:50:06;;;;;;;12.97;3.67;;;16.70;82.70;;;;;;5042881;28;20187;-69
2022/05/27 09:52:37;;;;;;;4.23;2.37;;;17.00;83.00;;;;;;5023700;28;20238;-70
2022/05/27 09:55:25;;;;;;;4.60;3.20;;;17.30;83.60;;;;;;5039251;28;20202;-69
2022/05/27 09:58:04;;;;;;;8.20;2.80;;;17.30;80.40;;;;;;5035492;28;20246;-70
2022/05/27 10:00:48;;;;;;;10.13;3.77;;;17.30;80.10;;;;;;5034759;28;20237;-79
2022/05/27 10:03:24;;;;;;;10.00;3.03;;;16.90;78.70;;;;;;5027365;28;20903;-66
2022/05/27 10:06:02;;;;;;;8.90;4.70;;;17.00;79.10;;;;;;5065409;28;20194;-67
2022/05/27 10:08:35;;;;;;;7.17;3.30;;;17.00;79.20;;;;;;5041349;28;20285;-67
2022/05/27 10:11:19;;;;;;;7.73;3.43;;;17.20;78.50;;;;;;5040295;28;20226;-67
2022/05/27 10:13:47;;;;;;;6.70;3.73;;;16.90;80.20;;;;;;5028955;28;20309;-67
2022/05/27 10:16:25;;;;;;;9.80;4.00;;;17.20;79.70;;;;;;5065247;28;20205;-67
2022/05/27 10:19:14;;;;;;;5.60;2.40;;;17.30;78.70;;;;;;5038470;28;20557;-67
2022/05/27 10:22:36;;;;;;;5.53;3.43;;;16.80;82.00;;;;;;5062596;28;20217;-68
2022/05/27 10:24:44;;;;;;;13.80;4.33;;;16.60;83.90;;;;;;5046662;28;20230;-67
2022/05/27 10:27:19;;;;;;;9.23;3.67;;;16.60;82.40;;;;;;5060978;28;20210;-68
2022/05/27 10:29:57;;;;;;;9.50;4.83;;;16.80;81.20;;;;;;5038354;28;20209;-67
2022/05/27 10:32:27;;;;;;;8.03;3.97;;;17.00;80.70;;;;;;5037271;28;20203;-68
2022/05/27 10:34:56;;;;;;;13.17;4.73;;;17.10;80.80;;;;;;5029319;28;20236;-67
2022/05/27 10:37:33;;;;;;;9.90;3.57;;;16.70;80.50;;;;;;5056600;28;20230;-68
2022/05/27 10:40:27;;;;;;;11.10;4.17;;;16.60;82.40;;;;;;5045739;28;20174;-68
2022/05/27 10:43:01;;;;;;;6.43;3.93;;;16.50;81.40;;;;;;5027297;28;20294;-67
2022/05/27 10:45:43;;;;;;;7.00;3.40;;;16.50;80.90;;;;;;5033480;28;20187;-67
2022/05/27 10:48:28;;;;;;;4.77;2.10;;;16.60;81.70;;;;;;5043622;28;20219;-67
2022/05/27 10:51:09;;;;;;;7.07;2.57;;;16.70;82.30;;;;;;5041514;28;20233;-68
2022/05/27 10:53:46;;;;;;;5.30;3.30;;;16.70;80.60;;;;;;5042027;28;20222;-69
2022/05/27 10:56:41;;;;;;;6.73;3.27;;;16.90;80.10;;;;;;5057871;28;20194;-68
2022/05/27 11:02:56;;;;;;;6.00;3.10;;;17.40;76.50;;;;;;5041211;28;20580;-67
2022/05/27 11:05:38;;;;;;;9.47;3.63;;;18.00;76.50;;;;;;5032767;28;20210;-68
2022/05/27 11:08:25;;;;;;;3.53;2.63;;;18.20;72.30;;;;;;5039158;28;20895;-69
2022/05/27 11:11:20;;;;;;;5.53;1.93;;;18.30;70.20;;;;;;5035932;28;20291;-67
2022/05/27 11:17:24;;;;;;;4.77;2.00;;;18.00;71.40;;;;;;5045485;28;20248;-67
2022/05/27 11:19:50;;;;;;;4.20;2.60;;;17.50;66.60;;;;;;5028924;28;20211;-67
2022/05/27 11:22:37;;;;;;;3.50;2.13;;;17.40;68.60;;;;;;5059928;28;20713;-68
2022/05/27 11:25:40;;;;;;;7.10;2.43;;;17.20;68.40;;;;;;5026484;28;20748;-67
2022/05/27 11:28:34;;;;;;;4.60;2.70;;;17.10;70.20;;;;;;5029703;28;20187;-68
2022/05/27 11:31:25;;;;;;;6.47;2.50;;;17.30;70.90;;;;;;5038809;28;20243;-67
2022/05/27 11:34:05;;;;;;;3.57;2.03;;;18.10;71.60;;;;;;5036818;28;20232;-66
2022/05/27 11:36:42;;;;;;;7.87;3.17;;;18.60;70.70;;;;;;5040393;28;20219;-68
2022/05/27 11:39:47;;;;;;;8.43;3.97;;;19.00;69.10;;;;;;5040528;28;20244;-74
2022/05/27 11:43:07;;;;;;;5.67;2.60;;;18.20;72.40;;;;;;5034694;28;20188;-83
2022/05/27 11:45:45;;;;;;;6.63;2.27;;;17.40;71.70;;;;;;5037107;28;20203;-63
2022/05/27 11:48:35;;;;;;;4.40;2.43;;;17.30;72.90;;;;;;5033867;28;21043;-63
2022/05/27 11:51:08;;;;;;;7.10;2.73;;;17.20;73.60;;;;;;5032606;28;20192;-64
2022/05/27 11:53:49;;;;;;;7.67;3.13;;;16.70;91.10;;;;;;5039729;28;20214;-64
2022/05/27 11:56:16;;;;;;;6.57;3.23;;;15.70;99.90;;;;;;5051536;28;20189;-65
2022/05/27 11:58:56;;;;;;;7.90;3.80;;;14.80;99.90;;;;;;5056920;28;20199;-64
2022/05/27 12:01:44;;;;;;;6.60;3.23;;;14.50;99.90;;;;;;5041442;28;20222;-63
2022/05/27 12:04:27;;;;;;;4.53;2.80;;;14.40;99.90;;;;;;5035493;28;20222;-64
2022/05/27 12:07:17;;;;;;;2.57;2.20;;;14.70;99.90;;;;;;5036255;28;20195;-71
2022/05/27 12:10:00;;;;;;;6.63;2.80;;;15.60;99.20;;;;;;5028270;28;20230;-63
2022/05/27 12:12:33;;;;;;;6.83;2.70;;;16.50;99.60;;;;;;5035442;28;20180;-63
2022/05/27 12:15:05;;;;;;;5.07;3.03;;;17.40;92.30;;;;;;5034207;28;20290;-64
2022/05/27 12:17:40;;;;;;;4.63;2.37;;;17.90;89.90;;;;;;5035298;28;20184;-63
2022/05/27 12:20:06;;;;;;;5.20;3.57;;;18.20;84.50;;;;;;5028201;28;20223;-64
2022/05/27 12:22:33;;;;;;;3.07;1.83;;;18.60;82.00;;;;;;5062754;28;20194;-64
2022/05/27 12:25:07;;;;;;;6.43;2.37;;;19.50;77.70;;;;;;5040141;28;20216;-64
2022/05/27 12:27:34;;;;;;;6.27;3.23;;;20.00;75.80;;;;;;5051019;28;20218;-64
2022/05/27 12:30:01;;;;;;;4.33;1.97;;;19.90;71.30;;;;;;5044525;28;20233;-64
2022/05/27 12:32:28;;;;;;;7.40;2.67;;;20.60;68.50;;;;;;5057150;28;20206;-65
2022/05/27 12:35:20;;;;;;;9.70;4.33;;;20.90;66.70;;;;;;5040246;28;20565;-64
2022/05/27 12:37:58;;;;;;;4.57;2.90;;;19.30;65.10;;;;;;5025544;28;20202;-66
2022/05/27 12:40:29;;;;;;;6.87;1.80;;;18.60;68.00;;;;;;5037240;28;20220;-66
2022/05/27 12:43:11;;;;;;;5.87;2.50;;;18.20;69.00;;;;;;5025017;28;20209;-65
2022/05/27 12:45:54;;;;;;;3.70;1.70;;;18.00;67.80;;;;;;5037004;28;20194;-66
2022/05/27 12:48:27;;;;;;;5.03;2.77;;;17.70;69.50;;;;;;5038533;28;20199;-66
2022/05/27 12:50:55;;;;;;;6.60;2.70;;;17.30;70.70;;;;;;5037268;28;20246;-67
2022/05/27 12:53:40;;;;;;;5.30;1.80;;;17.30;74.90;;;;;;5050597;28;20218;-68
2022/05/27 13:02:24;;;;;;;4.30;2.73;;;19.90;65.90;;;;;;5033706;28;20245;-66
2022/05/27 13:05:03;;;;;;;2.63;1.80;;;21.00;65.30;;;;;;5037277;28;20191;-66
2022/05/27 13:07:38;;;;;;;5.22;2.97;;;22.20;61.30;;;;;;5030002;28;20203;-67
2022/05/27 13:10:16;;;;;;;5.28;2.35;;;22.80;58.30;;;;;;5041163;28;20178;-67
2022/05/27 13:12:45;;;;;;;4.90;2.53;;;23.30;54.50;;;;;;5033766;28;20210;-66
2022/05/27 13:15:40;;;;;;;4.03;2.30;;;22.00;53.10;;;;;;5046546;28;20200;-67
2022/05/27 13:18:06;;;;;;;5.95;2.75;;;22.60;55.40;;;;;;5033790;28;20243;-66
2022/05/27 13:20:50;;;;;;;5.50;2.33;;;23.10;54.10;;;;;;5031695;28;20183;-66
2022/05/27 13:23:25;;;;;;;7.93;3.00;;;22.40;51.20;;;;;;5031108;28;20203;-65
2022/05/27 13:26:18;;;;;;;3.53;2.28;;;22.20;51.20;;;;;;5033063;28;20191;-66
2022/05/27 13:28:52;;;;;;;7.53;3.20;;;22.00;52.50;;;;;;5026258;28;20677;-66
2022/05/27 13:31:33;;;;;;;4.97;2.13;;;22.50;52.90;;;;;;5033083;28;20227;-66
2022/05/27 13:34:06;;;;;;;5.40;2.17;;;22.50;50.80;;;;;;5030083;28;20684;-66
2022/05/27 13:36:40;;;;;;;5.97;2.25;;;21.30;52.00;;;;;;5030612;28;20217;-65
2022/05/27 13:39:10;;;;;;;5.97;2.27;;;20.50;52.40;;;;;;5029170;28;20179;-64
2022/05/27 13:41:43;;;;;;;6.87;2.03;;;20.00;53.30;;;;;;5035812;28;20194;-66
2022/05/27 13:44:11;;;;;;;2.60;1.87;;;19.70;54.40;;;;;;5033931;28;20732;-63